Time;durP1;ratioP1;P1;durP2;ratioP2;P2;SDS_P1;SDS_P2;PMS_P1;PMS_P2;Temp;Humidity;BMP_temperature;BMP_pressure;BME280_temperature;BME280_humidity;BME280_pressure;Samples;Min_cycle;Max_cycle;Signal;HPM_P1;HPM_P2
2024/03/01 00:02:27;;;;;;;10.10;3.90;;;;;;;;;;5132117;27;20639;-78
2024/03/01 00:04:54;;;;;;;9.20;3.50;;;;;;;;;;5131912;27;20197;-80
2024/03/01 00:07:21;;;;;;;7.13;3.77;;;;;;;;;;5131240;28;20679;-79
2024/03/01 00:09:49;;;;;;;9.57;3.50;;;;;;;;;;5131922;28;20232;-78
2024/03/01 00:12:16;;;;;;;11.13;3.70;;;;;;;;;;5132185;27;20201;-79
2024/03/01 00:14:43;;;;;;;11.63;3.93;;;;;;;;;;5131850;28;20219;-79
2024/03/01 00:17:10;;;;;;;11.63;4.30;;;;;;;;;;5131678;28;20288;-78
2024/03/01 00:19:39;;;;;;;14.93;4.60;;;;;;;;;;5131222;28;20288;-79
2024/03/01 00:22:07;;;;;;;9.90;3.90;;;;;;;;;;5132157;28;20284;-79
2024/03/01 00:24:34;;;;;;;10.67;3.70;;;;;;;;;;5131462;28;20238;-78
2024/03/01 00:27:02;;;;;;;7.63;3.00;;;;;;;;;;5131974;28;20275;-79
2024/03/01 00:29:29;;;;;;;6.83;2.83;;;;;;;;;;5131493;28;20193;-78
2024/03/01 00:31:56;;;;;;;8.03;2.93;;;;;;;;;;5131454;27;20199;-79
2024/03/01 00:34:23;;;;;;;9.23;2.33;;;;;;;;;;5131113;27;20626;-78
2024/03/01 00:36:52;;;;;;;8.73;2.67;;;;;;;;;;5133900;27;20546;-79
2024/03/01 00:39:19;;;;;;;8.43;2.87;;;;;;;;;;5095004;28;20285;-80
2024/03/01 00:41:46;;;;;;;10.70;3.00;;;;;;;;;;5094805;28;20197;-78
2024/03/01 00:44:13;;;;;;;7.10;2.37;;;;;;;;;;5095024;28;20277;-79
2024/03/01 00:46:41;;;;;;;7.97;2.57;;;;;;;;;;5095289;28;20296;-79
2024/03/01 00:49:08;;;;;;;9.50;2.50;;;;;;;;;;5093918;28;20241;-79
2024/03/01 00:51:35;;;;;;;7.43;2.37;;;;;;;;;;5094761;28;20277;-78
2024/03/01 00:54:04;;;;;;;6.23;2.67;;;;;;;;;;5094403;28;20201;-78
2024/03/01 00:56:31;;;;;;;11.13;2.27;;;;;;;;;;5094283;28;20289;-80
2024/03/01 00:58:58;;;;;;;9.83;2.47;;;;;;;;;;5094598;28;20285;-79
2024/03/01 01:01:25;;;;;;;10.67;2.07;;;;;;;;;;5095144;28;20273;-79
2024/03/01 01:03:53;;;;;;;8.10;2.60;;;;;;;;;;5093981;28;20624;-79
2024/03/01 01:06:20;;;;;;;11.23;2.13;;;;;;;;;;5094239;28;20281;-78
2024/03/01 01:08:47;;;;;;;8.87;2.10;;;;;;;;;;5094225;28;20733;-78
2024/03/01 01:11:15;;;;;;;9.73;2.20;;;;;;;;;;5094880;28;20285;-78
2024/03/01 01:13:42;;;;;;;9.17;3.10;;;;;;;;;;5094415;28;20190;-79
2024/03/01 01:16:10;;;;;;;10.40;2.13;;;;;;;;;;5094350;28;20395;-78
2024/03/01 01:18:37;;;;;;;7.03;2.37;;;;;;;;;;5093894;28;20285;-79
2024/03/01 01:21:04;;;;;;;7.27;2.40;;;;;;;;;;5134175;27;20242;-79
2024/03/01 01:23:31;;;;;;;7.50;2.20;;;;;;;;;;5134807;27;20220;-78
2024/03/01 01:25:58;;;;;;;8.17;2.67;;;;;;;;;;5134548;27;20238;-79
2024/03/01 01:28:27;;;;;;;11.10;2.23;;;;;;;;;;5133986;27;20233;-79
2024/03/01 01:30:54;;;;;;;11.17;2.30;;;;;;;;;;5135264;27;20220;-79
2024/03/01 01:33:21;;;;;;;6.10;2.13;;;;;;;;;;5134110;27;20193;-80
2024/03/01 01:35:49;;;;;;;9.00;2.23;;;;;;;;;;5134371;27;20220;-79
2024/03/01 01:38:16;;;;;;;7.77;2.40;;;;;;;;;;5123225;27;20198;-78
2024/03/01 01:40:45;;;;;;;10.60;2.47;;;;;;;;;;5113900;28;20229;-79
2024/03/01 01:43:12;;;;;;;8.33;2.33;;;;;;;;;;5114321;28;20190;-78
2024/03/01 01:45:41;;;;;;;10.60;2.40;;;;;;;;;;5119372;27;20237;-78
2024/03/01 01:48:08;;;;;;;9.87;2.47;;;;;;;;;;5133353;27;20722;-79
2024/03/01 01:50:36;;;;;;;11.13;2.20;;;;;;;;;;5134210;27;20198;-79
2024/03/01 01:53:03;;;;;;;14.20;2.97;;;;;;;;;;5134589;27;20196;-78
2024/03/01 01:55:31;;;;;;;7.97;2.10;;;;;;;;;;5134736;27;20217;-79
2024/03/01 01:57:58;;;;;;;9.97;2.10;;;;;;;;;;5134726;27;20747;-79
2024/03/01 02:00:25;;;;;;;9.53;2.17;;;;;;;;;;5133675;27;20196;-78
2024/03/01 02:02:55;;;;;;;13.17;2.40;;;;;;;;;;5134850;27;20325;-79
2024/03/01 02:05:21;;;;;;;13.17;2.27;;;;;;;;;;5110684;27;20233;-78
2024/03/01 02:07:49;;;;;;;9.23;2.23;;;;;;;;;;5098001;28;20319;-79
2024/03/01 02:10:17;;;;;;;8.10;1.90;;;;;;;;;;5093356;28;20315;-79
2024/03/01 02:12:58;;;;;;;9.70;1.90;;;;;;;;;;5093283;28;20205;-78
2024/03/01 02:15:26;;;;;;;7.97;2.27;;;;;;;;;;5093057;28;20227;-79
2024/03/01 02:17:54;;;;;;;10.93;2.27;;;;;;;;;;5093640;28;20198;-79
2024/03/01 02:20:22;;;;;;;7.77;2.20;;;;;;;;;;5093749;28;20272;-79
2024/03/01 02:22:52;;;;;;;11.03;2.33;;;;;;;;;;5093302;28;20636;-78
2024/03/01 02:25:20;;;;;;;8.47;2.20;;;;;;;;;;5093157;28;20245;-79
2024/03/01 02:27:48;;;;;;;7.20;2.33;;;;;;;;;;5092947;28;20265;-79
2024/03/01 02:30:16;;;;;;;6.93;2.00;;;;;;;;;;5092271;28;20237;-78
2024/03/01 02:32:43;;;;;;;10.27;2.10;;;;;;;;;;5093273;28;20226;-79
2024/03/01 02:35:10;;;;;;;12.57;1.80;;;;;;;;;;5092615;28;20190;-79
2024/03/01 02:37:37;;;;;;;8.33;1.73;;;;;;;;;;5099194;28;20200;-78
2024/03/01 02:40:05;;;;;;;8.97;1.70;;;;;;;;;;5113165;28;20211;-79
2024/03/01 02:42:34;;;;;;;10.07;2.23;;;;;;;;;;5113279;28;20197;-79
2024/03/01 02:45:02;;;;;;;8.53;2.00;;;;;;;;;;5112467;28;20212;-79
2024/03/01 02:47:30;;;;;;;9.10;1.90;;;;;;;;;;5113052;28;20278;-78
2024/03/01 02:49:57;;;;;;;7.63;2.00;;;;;;;;;;5112741;28;20257;-79
2024/03/01 02:52:24;;;;;;;12.07;2.10;;;;;;;;;;5113215;28;20240;-79
2024/03/01 02:54:51;;;;;;;8.43;1.73;;;;;;;;;;5113264;28;20208;-79
2024/03/01 02:57:18;;;;;;;8.00;2.10;;;;;;;;;;5112436;28;20198;-78
2024/03/01 02:59:47;;;;;;;12.60;2.13;;;;;;;;;;5111056;28;20289;-79
2024/03/01 03:02:14;;;;;;;8.03;1.73;;;;;;;;;;5112864;28;20197;-79
2024/03/01 03:04:42;;;;;;;9.67;1.43;;;;;;;;;;5112343;28;20213;-80
2024/03/01 03:07:10;;;;;;;6.10;1.30;;;;;;;;;;5112567;28;20233;-79
2024/03/01 03:09:37;;;;;;;9.30;1.53;;;;;;;;;;5112396;28;20296;-78
2024/03/01 03:12:06;;;;;;;11.13;1.80;;;;;;;;;;5112946;28;20681;-78
2024/03/01 03:14:33;;;;;;;7.80;1.63;;;;;;;;;;5112315;28;20193;-78
2024/03/01 03:17:02;;;;;;;8.17;1.60;;;;;;;;;;5112058;28;20288;-79
2024/03/01 03:19:29;;;;;;;11.17;1.97;;;;;;;;;;5111905;28;20861;-79
2024/03/01 03:21:56;;;;;;;8.67;1.33;;;;;;;;;;5112128;28;20218;-79
2024/03/01 03:24:24;;;;;;;11.80;1.87;;;;;;;;;;5111583;28;20246;-79
2024/03/01 03:26:51;;;;;;;10.77;2.03;;;;;;;;;;5112794;28;20202;-79
2024/03/01 03:29:18;;;;;;;5.90;1.40;;;;;;;;;;5111396;28;20252;-80
2024/03/01 03:31:45;;;;;;;11.10;1.83;;;;;;;;;;5111745;28;20247;-79
2024/03/01 03:34:14;;;;;;;12.17;1.50;;;;;;;;;;5111922;28;20280;-79
2024/03/01 03:36:41;;;;;;;10.63;2.10;;;;;;;;;;5112234;28;20204;-79
2024/03/01 03:39:09;;;;;;;8.90;1.40;;;;;;;;;;5112300;28;20205;-79
2024/03/01 03:41:37;;;;;;;6.63;1.67;;;;;;;;;;5111745;28;20194;-78
2024/03/01 03:44:04;;;;;;;10.87;1.50;;;;;;;;;;5111459;28;20747;-79
2024/03/01 03:46:31;;;;;;;9.80;1.40;;;;;;;;;;5111473;28;20625;-79
2024/03/01 03:48:58;;;;;;;10.73;1.60;;;;;;;;;;5111238;28;20312;-78
2024/03/01 03:51:27;;;;;;;6.60;1.90;;;;;;;;;;5111744;28;20284;-79
2024/03/01 03:53:55;;;;;;;13.20;1.77;;;;;;;;;;5111660;28;20301;-79
2024/03/01 03:56:23;;;;;;;7.53;1.60;;;;;;;;;;5111699;28;20193;-80
2024/03/01 03:58:50;;;;;;;8.30;1.30;;;;;;;;;;5111555;28;20201;-78
2024/03/01 04:01:18;;;;;;;8.73;1.50;;;;;;;;;;5111741;28;20201;-79
2024/03/01 04:03:45;;;;;;;12.40;1.73;;;;;;;;;;5111616;28;20573;-79
2024/03/01 04:06:12;;;;;;;9.63;1.70;;;;;;;;;;5112307;28;20196;-79
2024/03/01 04:08:41;;;;;;;9.77;1.60;;;;;;;;;;5111999;28;20364;-79
2024/03/01 04:11:09;;;;;;;9.43;2.13;;;;;;;;;;5111226;28;20287;-79
2024/03/01 04:13:37;;;;;;;7.07;1.50;;;;;;;;;;5112910;28;20194;-80
2024/03/01 04:16:06;;;;;;;8.80;1.93;;;;;;;;;;5111446;28;20204;-79
2024/03/01 04:18:33;;;;;;;9.00;1.57;;;;;;;;;;5111521;28;20213;-79
2024/03/01 04:21:01;;;;;;;9.30;1.43;;;;;;;;;;5112358;28;20667;-79
2024/03/01 04:23:28;;;;;;;12.63;1.93;;;;;;;;;;5111305;28;20690;-80
2024/03/01 04:25:57;;;;;;;10.57;1.53;;;;;;;;;;5110695;28;20267;-79
2024/03/01 04:28:25;;;;;;;5.80;1.40;;;;;;;;;;5111693;28;20261;-80
2024/03/01 04:30:53;;;;;;;7.73;1.30;;;;;;;;;;5111946;28;20216;-80
2024/03/01 04:33:20;;;;;;;11.57;1.70;;;;;;;;;;5111784;28;20193;-79
2024/03/01 04:35:47;;;;;;;7.83;1.40;;;;;;;;;;5111406;28;20225;-78
2024/03/01 04:38:15;;;;;;;11.57;1.60;;;;;;;;;;5110724;28;20272;-80
2024/03/01 04:40:42;;;;;;;13.27;1.70;;;;;;;;;;5111107;28;20198;-80
2024/03/01 04:43:11;;;;;;;14.67;2.40;;;;;;;;;;5111510;28;20196;-79
2024/03/01 04:45:38;;;;;;;12.03;1.50;;;;;;;;;;5111149;28;20705;-79
2024/03/01 04:48:05;;;;;;;10.33;1.80;;;;;;;;;;5111004;28;20790;-79
2024/03/01 04:50:33;;;;;;;16.83;2.20;;;;;;;;;;5110877;28;20200;-80
2024/03/01 04:53:01;;;;;;;15.93;1.93;;;;;;;;;;5110966;28;20189;-80
2024/03/01 04:55:28;;;;;;;9.03;1.73;;;;;;;;;;5110978;28;20208;-80
2024/03/01 04:57:55;;;;;;;10.60;1.90;;;;;;;;;;5111154;28;20235;-80
2024/03/01 05:00:25;;;;;;;13.30;2.57;;;;;;;;;;5110944;28;20252;-80
2024/03/01 05:02:53;;;;;;;15.37;2.40;;;;;;;;;;5111572;28;20198;-79
2024/03/01 05:05:22;;;;;;;11.57;1.80;;;;;;;;;;5111299;28;20267;-79
2024/03/01 05:07:50;;;;;;;9.50;1.90;;;;;;;;;;5103796;28;20244;-79
2024/03/01 05:10:21;;;;;;;12.07;1.70;;;;;;;;;;5090137;28;20246;-79
2024/03/01 05:12:49;;;;;;;11.90;1.90;;;;;;;;;;5110772;28;20689;-79
2024/03/01 05:15:16;;;;;;;16.30;2.13;;;;;;;;;;5108590;28;20198;-80
2024/03/01 05:17:46;;;;;;;9.77;1.70;;;;;;;;;;5090442;28;20617;-78
2024/03/01 05:20:14;;;;;;;15.60;1.83;;;;;;;;;;5090756;28;20197;-79
2024/03/01 05:22:42;;;;;;;14.10;2.13;;;;;;;;;;5092166;28;20255;-79
2024/03/01 05:25:15;;;;;;;13.23;1.50;;;;;;;;;;5093367;28;20272;-79
2024/03/01 05:27:42;;;;;;;15.30;2.00;;;;;;;;;;5093778;28;20201;-78
2024/03/01 05:30:11;;;;;;;10.57;1.77;;;;;;;;;;5094647;28;20226;-78
2024/03/01 05:32:39;;;;;;;13.13;2.07;;;;;;;;;;5094407;28;20194;-80
2024/03/01 05:35:08;;;;;;;12.90;1.67;;;;;;;;;;5093916;28;20194;-79
2024/03/01 05:37:36;;;;;;;10.87;2.03;;;;;;;;;;5100546;28;20199;-79
2024/03/01 05:40:03;;;;;;;15.53;1.73;;;;;;;;;;5113669;28;20297;-79
2024/03/01 05:42:31;;;;;;;10.80;1.60;;;;;;;;;;5114072;28;20669;-79
2024/03/01 05:44:58;;;;;;;12.30;1.70;;;;;;;;;;5114255;28;20570;-78
2024/03/01 05:47:25;;;;;;;11.87;1.80;;;;;;;;;;5114341;28;20289;-79
2024/03/01 05:49:52;;;;;;;14.80;1.80;;;;;;;;;;5113377;28;20221;-79
2024/03/01 05:52:21;;;;;;;12.77;1.70;;;;;;;;;;5114161;28;20292;-78
2024/03/01 05:54:48;;;;;;;10.87;1.40;;;;;;;;;;5113907;28;20236;-78
2024/03/01 05:57:16;;;;;;;9.63;1.67;;;;;;;;;;5113972;28;20233;-78
2024/03/01 05:59:44;;;;;;;12.60;1.67;;;;;;;;;;5114272;28;20636;-78
2024/03/01 06:02:11;;;;;;;13.50;2.00;;;;;;;;;;5113807;28;20189;-78
2024/03/01 06:04:39;;;;;;;14.73;1.43;;;;;;;;;;5114214;28;20762;-78
2024/03/01 06:07:07;;;;;;;16.63;2.03;;;;;;;;;;5113456;28;20197;-78
2024/03/01 06:09:36;;;;;;;9.83;1.73;;;;;;;;;;5113194;28;20238;-78
2024/03/01 06:12:03;;;;;;;11.67;1.83;;;;;;;;;;5113978;28;20261;-78
2024/03/01 06:14:30;;;;;;;10.63;1.90;;;;;;;;;;5113689;28;20204;-78
2024/03/01 06:16:57;;;;;;;10.03;1.93;;;;;;;;;;5113880;28;20296;-78
2024/03/01 06:19:24;;;;;;;10.83;1.70;;;;;;;;;;5114038;28;20240;-78
2024/03/01 06:21:52;;;;;;;6.83;1.10;;;;;;;;;;5113345;28;20751;-78
2024/03/01 06:24:19;;;;;;;5.93;1.07;;;;;;;;;;5113413;28;20200;-78
2024/03/01 06:26:47;;;;;;;7.40;1.03;;;;;;;;;;5113601;28;20221;-79
2024/03/01 06:29:14;;;;;;;4.90;1.10;;;;;;;;;;5113918;28;20232;-79
2024/03/01 06:31:42;;;;;;;9.53;2.10;;;;;;;;;;5109818;28;20193;-78
2024/03/01 06:34:09;;;;;;;8.83;1.80;;;;;;;;;;5106393;28;20266;-79
2024/03/01 06:36:36;;;;;;;7.47;1.70;;;;;;;;;;5094231;28;20293;-79
2024/03/01 06:39:03;;;;;;;7.27;1.83;;;;;;;;;;5113034;28;20305;-79
2024/03/01 06:41:30;;;;;;;7.53;1.90;;;;;;;;;;5113299;28;20197;-78
2024/03/01 06:43:59;;;;;;;5.70;1.50;;;;;;;;;;5113584;28;20285;-79
2024/03/01 06:46:27;;;;;;;5.73;1.00;;;;;;;;;;5113161;28;20363;-79
2024/03/01 06:48:54;;;;;;;6.83;1.53;;;;;;;;;;5112632;28;20293;-78
2024/03/01 06:51:21;;;;;;;5.57;1.30;;;;;;;;;;5112419;28;20297;-79
2024/03/01 06:53:49;;;;;;;8.83;1.40;;;;;;;;;;5113070;28;20570;-79
2024/03/01 06:56:16;;;;;;;8.57;1.30;;;;;;;;;;5112806;28;20606;-79
2024/03/01 06:58:43;;;;;;;6.40;1.40;;;;;;;;;;5113419;28;20215;-80
2024/03/01 07:01:12;;;;;;;7.40;1.40;;;;;;;;;;5112493;28;20208;-79
2024/03/01 07:03:39;;;;;;;8.50;1.50;;;;;;;;;;5112624;28;20284;-79
2024/03/01 07:06:06;;;;;;;4.93;1.47;;;;;;;;;;5112678;28;20572;-78
2024/03/01 07:08:34;;;;;;;6.67;1.70;;;;;;;;;;5112353;28;20328;-79
2024/03/01 07:11:03;;;;;;;9.13;1.73;;;;;;;;;;5112326;28;20229;-79
2024/03/01 07:13:30;;;;;;;9.90;2.20;;;;;;;;;;5112481;28;20584;-78
2024/03/01 07:15:57;;;;;;;11.17;2.00;;;;;;;;;;5111928;28;20197;-79
2024/03/01 07:18:25;;;;;;;7.10;1.90;;;;;;;;;;5113008;28;20194;-78
2024/03/01 07:20:53;;;;;;;11.80;2.20;;;;;;;;;;5111111;28;20200;-79
2024/03/01 07:23:21;;;;;;;5.73;1.87;;;;;;;;;;5112035;28;20564;-79
2024/03/01 07:25:48;;;;;;;10.37;1.83;;;;;;;;;;5111733;28;20417;-79
2024/03/01 07:28:15;;;;;;;7.83;2.00;;;;;;;;;;5111652;28;20781;-78
2024/03/01 07:30:43;;;;;;;8.07;2.33;;;;;;;;;;5111761;28;20233;-78
2024/03/01 07:33:10;;;;;;;4.27;1.97;;;;;;;;;;5112582;28;20263;-78
2024/03/01 07:35:39;;;;;;;6.77;1.70;;;;;;;;;;5111691;28;20197;-77
2024/03/01 07:38:06;;;;;;;9.40;1.70;;;;;;;;;;5112078;28;20289;-78
2024/03/01 07:40:33;;;;;;;5.37;1.60;;;;;;;;;;5111234;28;20204;-78
2024/03/01 07:43:01;;;;;;;10.57;2.33;;;;;;;;;;5111729;28;20284;-78
2024/03/01 07:45:28;;;;;;;11.27;2.73;;;;;;;;;;5111667;28;20273;-78
2024/03/01 07:47:55;;;;;;;12.73;2.60;;;;;;;;;;5111886;28;20198;-77
2024/03/01 07:50:22;;;;;;;11.17;2.47;;;;;;;;;;5111231;28;20221;-78
2024/03/01 07:52:50;;;;;;;12.17;2.60;;;;;;;;;;5111605;28;20573;-78
2024/03/01 07:55:18;;;;;;;10.70;2.07;;;;;;;;;;5111965;28;20280;-77
2024/03/01 07:57:45;;;;;;;12.53;2.23;;;;;;;;;;5111327;28;20656;-80
2024/03/01 08:00:12;;;;;;;17.83;2.70;;;;;;;;;;5111625;28;20665;-80
2024/03/01 08:02:39;;;;;;;11.50;2.47;;;;;;;;;;5109560;28;20201;-80
2024/03/01 08:05:09;;;;;;;15.83;2.47;;;;;;;;;;5111087;28;20280;-79
2024/03/01 08:07:36;;;;;;;13.80;2.40;;;;;;;;;;5111156;28;20593;-80
2024/03/01 08:10:07;;;;;;;10.30;2.33;;;;;;;;;;5101557;28;20304;-84
2024/03/01 08:12:35;;;;;;;14.23;2.13;;;;;;;;;;5091519;28;20210;-83
2024/03/01 08:15:05;;;;;;;13.13;2.40;;;;;;;;;;5091679;28;20237;-85
2024/03/01 08:17:32;;;;;;;9.47;1.90;;;;;;;;;;5091351;28;20293;-84
2024/03/01 08:19:59;;;;;;;10.83;2.50;;;;;;;;;;5091440;28;20676;-86
2024/03/01 08:22:26;;;;;;;13.47;2.03;;;;;;;;;;5091557;28;20252;-83
2024/03/01 08:24:55;;;;;;;10.73;2.50;;;;;;;;;;5091440;28;20241;-84
2024/03/01 08:27:25;;;;;;;10.10;2.03;;;;;;;;;;5091788;28;20245;-84
2024/03/01 08:29:52;;;;;;;13.13;2.23;;;;;;;;;;5091747;28;20760;-85
2024/03/01 08:32:26;;;;;;;9.83;1.77;;;;;;;;;;5091151;28;20225;-85
2024/03/01 08:34:55;;;;;;;13.13;2.63;;;;;;;;;;5091715;28;20200;-85
2024/03/01 08:37:24;;;;;;;8.60;1.83;;;;;;;;;;5117690;28;20208;-85
2024/03/01 08:39:53;;;;;;;14.77;2.20;;;;;;;;;;5112211;28;20194;-85
2024/03/01 08:42:20;;;;;;;13.73;2.70;;;;;;;;;;5112087;28;20200;-85
2024/03/01 08:44:58;;;;;;;11.90;2.37;;;;;;;;;;5111505;28;20898;-85
2024/03/01 08:47:26;;;;;;;10.50;2.10;;;;;;;;;;5111499;28;20229;-85
2024/03/01 08:50:08;;;;;;;10.73;2.10;;;;;;;;;;5111604;28;20221;-84
2024/03/01 08:52:37;;;;;;;10.37;2.53;;;;;;;;;;5111616;28;20285;-84
2024/03/01 08:55:34;;;;;;;11.10;2.30;;;;;;;;;;5112488;28;20311;-86
2024/03/01 08:58:01;;;;;;;8.13;2.30;;;;;;;;;;5113263;28;20629;-93
2024/03/01 09:00:35;;;;;;;11.30;2.10;;;;;;;;;;5115784;28;20280;-76
2024/03/01 09:03:03;;;;;;;10.07;2.30;;;;;;;;;;5115031;28;20698;-76
2024/03/01 09:05:32;;;;;;;11.60;2.57;;;;;;;;;;5115045;28;20279;-76
2024/03/01 09:08:01;;;;;;;10.03;2.43;;;;;;;;;;5114646;28;20293;-76
2024/03/01 09:10:29;;;;;;;8.03;2.13;;;;;;;;;;5113888;28;20232;-77
2024/03/01 09:12:57;;;;;;;9.90;2.30;;;;;;;;;;5115387;28;20212;-77
2024/03/01 09:15:25;;;;;;;8.17;2.33;;;;;;;;;;5114245;28;20365;-77
2024/03/01 09:17:54;;;;;;;8.33;1.90;;;;;;;;;;5114421;28;20307;-77
2024/03/01 09:20:23;;;;;;;10.00;1.90;;;;;;;;;;5114780;28;20198;-77
2024/03/01 09:22:50;;;;;;;6.73;1.80;;;;;;;;;;5114496;28;20288;-77
2024/03/01 09:25:32;;;;;;;6.47;1.70;;;;;;;;;;5114469;28;20198;-77
2024/03/01 09:28:00;;;;;;;7.77;1.73;;;;;;;;;;5114640;28;20233;-77
2024/03/01 09:30:27;;;;;;;8.53;2.03;;;;;;;;;;5114361;28;20226;-77
2024/03/01 09:32:56;;;;;;;10.67;1.53;;;;;;;;;;5114451;28;20198;-77
2024/03/01 09:35:24;;;;;;;7.77;1.70;;;;;;;;;;5114274;28;20194;-77
2024/03/01 09:37:51;;;;;;;10.07;1.70;;;;;;;;;;5114027;28;20190;-77
2024/03/01 09:40:51;;;;;;;7.17;1.07;;;;;;;;;;5114298;28;20200;-76
2024/03/01 09:43:22;;;;;;;8.60;1.20;;;;;;;;;;5113965;28;20202;-76
2024/03/01 09:45:55;;;;;;;7.00;1.27;;;;;;;;;;5113774;28;20289;-77
2024/03/01 09:48:39;;;;;;;6.53;1.53;;;;;;;;;;5113906;28;20293;-76
2024/03/01 09:51:14;;;;;;;6.13;1.20;;;;;;;;;;5113572;28;20784;-77
2024/03/01 09:53:52;;;;;;;6.17;1.37;;;;;;;;;;5114177;28;20262;-78
2024/03/01 09:56:24;;;;;;;6.10;1.43;;;;;;;;;;5114381;28;20273;-77
2024/03/01 09:58:55;;;;;;;6.60;1.57;;;;;;;;;;5114085;28;20201;-77
2024/03/01 10:01:25;;;;;;;6.13;1.63;;;;;;;;;;5113777;28;20205;-77
2024/03/01 10:04:02;;;;;;;5.30;1.30;;;;;;;;;;5114066;28;20197;-77
2024/03/01 10:06:38;;;;;;;7.57;1.53;;;;;;;;;;5113625;28;20189;-77
2024/03/01 10:09:11;;;;;;;7.27;1.70;;;;;;;;;;5113745;28;20781;-78
2024/03/01 10:11:45;;;;;;;7.33;1.77;;;;;;;;;;5113684;28;20236;-77
2024/03/01 10:14:19;;;;;;;6.27;1.47;;;;;;;;;;5113354;28;20287;-77
2024/03/01 10:16:52;;;;;;;7.93;1.50;;;;;;;;;;5113867;28;20197;-78
2024/03/01 10:19:32;;;;;;;8.83;1.43;;;;;;;;;;5113131;28;20232;-78
2024/03/01 10:22:06;;;;;;;6.70;1.50;;;;;;;;;;5113431;28;20289;-79
2024/03/01 10:24:38;;;;;;;6.40;1.50;;;;;;;;;;5113133;28;20189;-78
2024/03/01 10:27:11;;;;;;;6.90;1.73;;;;;;;;;;5113470;28;20194;-78
2024/03/01 10:29:47;;;;;;;5.63;2.00;;;;;;;;;;5112900;28;20220;-78
2024/03/01 10:32:19;;;;;;;10.10;3.30;;;;;;;;;;5113291;28;20324;-78
2024/03/01 10:34:54;;;;;;;10.37;2.90;;;;;;;;;;5113151;28;20293;-78
2024/03/01 10:37:28;;;;;;;9.00;1.93;;;;;;;;;;5113420;28;20189;-79
2024/03/01 10:40:03;;;;;;;6.53;2.03;;;;;;;;;;5112972;28;20196;-78
2024/03/01 10:42:30;;;;;;;6.10;2.30;;;;;;;;;;5113043;28;20576;-77
2024/03/01 10:45:02;;;;;;;7.40;1.67;;;;;;;;;;5113284;28;20276;-78
2024/03/01 10:47:30;;;;;;;5.30;1.83;;;;;;;;;;5112825;28;20671;-78
2024/03/01 10:50:16;;;;;;;6.23;1.53;;;;;;;;;;5113424;28;20288;-78
2024/03/01 10:52:46;;;;;;;6.40;1.80;;;;;;;;;;5113089;28;20198;-78
2024/03/01 10:55:15;;;;;;;7.97;2.13;;;;;;;;;;5112611;28;20289;-78
2024/03/01 10:57:48;;;;;;;6.17;1.67;;;;;;;;;;5112910;28;20290;-78
2024/03/01 11:00:17;;;;;;;6.47;1.77;;;;;;;;;;5113048;28;20190;-77
2024/03/01 11:02:48;;;;;;;5.67;2.57;;;;;;;;;;5112933;28;20201;-77
2024/03/01 11:05:22;;;;;;;4.27;1.90;;;;;;;;;;5112601;28;20224;-78
2024/03/01 11:07:56;;;;;;;5.60;2.33;;;;;;;;;;5111774;28;20965;-77
2024/03/01 11:10:26;;;;;;;7.47;1.80;;;;;;;;;;5112747;28;20319;-78
2024/03/01 11:12:55;;;;;;;4.37;1.23;;;;;;;;;;5112247;28;20650;-78
2024/03/01 11:15:24;;;;;;;5.07;1.77;;;;;;;;;;5112491;28;20194;-78
2024/03/01 11:17:52;;;;;;;5.80;1.50;;;;;;;;;;5111885;28;20198;-78
2024/03/01 11:20:22;;;;;;;7.43;1.20;;;;;;;;;;5112057;28;20686;-78
2024/03/01 11:22:53;;;;;;;6.17;1.40;;;;;;;;;;5112190;28;20224;-78
2024/03/01 11:25:24;;;;;;;8.07;1.37;;;;;;;;;;5112525;28;20300;-78
2024/03/01 11:27:55;;;;;;;5.83;1.77;;;;;;;;;;5112216;28;20200;-79
2024/03/01 11:30:24;;;;;;;6.53;1.80;;;;;;;;;;5112064;28;20247;-78
2024/03/01 11:32:55;;;;;;;6.60;1.57;;;;;;;;;;5112333;28;20194;-78
2024/03/01 11:35:33;;;;;;;7.33;1.70;;;;;;;;;;5113070;28;20198;-79
2024/03/01 11:38:02;;;;;;;7.33;1.70;;;;;;;;;;5112110;28;20258;-78
2024/03/01 11:40:36;;;;;;;7.90;1.20;;;;;;;;;;5111709;28;20239;-78
2024/03/01 11:43:07;;;;;;;8.87;2.13;;;;;;;;;;5112239;28;20201;-78
2024/03/01 11:45:48;;;;;;;4.47;1.23;;;;;;;;;;5112600;28;20193;-78
2024/03/01 11:48:27;;;;;;;6.57;1.80;;;;;;;;;;5112031;28;20293;-77
2024/03/01 11:51:01;;;;;;;5.63;1.50;;;;;;;;;;5112174;28;20232;-78
2024/03/01 11:53:43;;;;;;;4.43;1.37;;;;;;;;;;5111835;28;20189;-77
2024/03/01 11:56:29;;;;;;;9.70;1.87;;;;;;;;;;5111441;28;20293;-77
2024/03/01 11:59:06;;;;;;;7.00;1.67;;;;;;;;;;5111940;28;20689;-78
2024/03/01 12:01:38;;;;;;;5.17;1.43;;;;;;;;;;5112379;28;20228;-78
2024/03/01 12:04:28;;;;;;;4.57;1.60;;;;;;;;;;5111801;28;20285;-78
2024/03/01 12:07:13;;;;;;;4.33;1.03;;;;;;;;;;5111888;28;20200;-77
2024/03/01 12:09:47;;;;;;;5.10;1.30;;;;;;;;;;5111475;28;20229;-76
2024/03/01 12:12:20;;;;;;;6.07;2.03;;;;;;;;;;5111971;28;20247;-76
2024/03/01 12:14:52;;;;;;;3.73;1.17;;;;;;;;;;5111535;28;20248;-76
2024/03/01 12:17:22;;;;;;;5.80;1.40;;;;;;;;;;5112302;28;20194;-77
2024/03/01 12:19:53;;;;;;;6.33;1.50;;;;;;;;;;5111940;28;20641;-77
2024/03/01 12:22:31;;;;;;;5.77;2.13;;;;;;;;;;5111550;28;20208;-77
2024/03/01 12:25:00;;;;;;;5.87;2.43;;;;;;;;;;5111496;28;20194;-77
2024/03/01 12:27:36;;;;;;;5.47;1.70;;;;;;;;;;5111764;28;20292;-77
2024/03/01 12:30:11;;;;;;;8.50;2.63;;;;;;;;;;5111437;28;20254;-77
2024/03/01 12:32:44;;;;;;;7.73;3.47;;;;;;;;;;5113500;28;20341;-77
2024/03/01 12:35:20;;;;;;;7.20;2.70;;;;;;;;;;5115596;28;20204;-77
2024/03/01 12:37:52;;;;;;;5.67;2.37;;;;;;;;;;5115331;28;20530;-77
2024/03/01 12:40:19;;;;;;;4.97;1.97;;;;;;;;;;5115590;28;20195;-76
2024/03/01 12:42:54;;;;;;;5.90;2.23;;;;;;;;;;5115612;28;20292;-77
2024/03/01 12:45:28;;;;;;;6.17;2.20;;;;;;;;;;5115552;28;20216;-77
2024/03/01 12:48:00;;;;;;;5.23;2.20;;;;;;;;;;5113649;28;20232;-77
2024/03/01 12:50:34;;;;;;;5.40;1.47;;;;;;;;;;5114790;28;20224;-78
2024/03/01 12:53:15;;;;;;;6.73;1.53;;;;;;;;;;5114849;28;20328;-78
2024/03/01 12:55:48;;;;;;;4.93;1.90;;;;;;;;;;5115080;28;20200;-77
2024/03/01 12:58:25;;;;;;;5.83;1.70;;;;;;;;;;5115249;28;20225;-78
2024/03/01 13:00:56;;;;;;;7.70;2.70;;;;;;;;;;5115248;28;20280;-78
2024/03/01 13:03:35;;;;;;;6.70;2.60;;;;;;;;;;5132801;27;20201;-78
2024/03/01 13:06:03;;;;;;;8.43;3.17;;;;;;;;;;5125503;27;20300;-77
2024/03/01 13:08:37;;;;;;;8.13;3.90;;;;;;;;;;5114488;28;20232;-77
2024/03/01 13:11:05;;;;;;;9.07;3.60;;;;;;;;;;5114624;28;20209;-78
2024/03/01 13:13:34;;;;;;;9.33;3.30;;;;;;;;;;5114712;28;20569;-78
2024/03/01 13:16:07;;;;;;;7.67;3.80;;;;;;;;;;5114555;28;20284;-79
2024/03/01 13:18:38;;;;;;;11.17;3.80;;;;;;;;;;5114510;28;20201;-76
2024/03/01 13:21:09;;;;;;;8.77;3.53;;;;;;;;;;5114719;28;20197;-78
2024/03/01 13:23:44;;;;;;;11.73;4.70;;;;;;;;;;5114061;28;20198;-79
2024/03/01 13:26:28;;;;;;;10.87;4.10;;;;;;;;;;5114490;28;20224;-78
2024/03/01 13:28:59;;;;;;;7.23;2.40;;;;;;;;;;5114833;28;20214;-78
2024/03/01 13:31:31;;;;;;;7.77;2.20;;;;;;;;;;5114274;28;20224;-79
2024/03/01 13:33:59;;;;;;;9.33;3.00;;;;;;;;;;5114257;28;20197;-77
2024/03/01 13:36:30;;;;;;;11.27;2.33;;;;;;;;;;5114302;28;20190;-79
2024/03/01 13:39:14;;;;;;;6.47;2.20;;;;;;;;;;5114411;28;20325;-77
2024/03/01 13:41:50;;;;;;;7.40;1.67;;;;;;;;;;5114640;28;20209;-78
2024/03/01 13:44:28;;;;;;;10.57;2.50;;;;;;;;;;5113293;28;20665;-77
2024/03/01 13:46:58;;;;;;;10.40;2.03;;;;;;;;;;5114473;28;20224;-78
2024/03/01 13:49:27;;;;;;;5.63;1.90;;;;;;;;;;5114212;28;20194;-77
2024/03/01 13:51:55;;;;;;;8.50;1.60;;;;;;;;;;5113768;28;20221;-78
2024/03/01 13:54:22;;;;;;;6.07;1.50;;;;;;;;;;5113887;28;20194;-77
2024/03/01 13:56:51;;;;;;;5.80;1.43;;;;;;;;;;5113811;28;20194;-77
2024/03/01 14:17:10;;;;;;;6.27;2.87;;;;;;;;;;5133568;27;20625;-77
2024/03/01 14:19:37;;;;;;;4.53;2.30;;;;;;;;;;5129180;27;20201;-80
2024/03/01 14:22:05;;;;;;;8.40;2.70;;;;;;;;;;5129578;28;20280;-76
2024/03/01 14:24:33;;;;;;;6.67;2.10;;;;;;;;;;5129046;28;20195;-74
2024/03/01 14:27:00;;;;;;;7.13;2.90;;;;;;;;;;5128499;28;20248;-75
2024/03/01 14:29:28;;;;;;;6.70;3.17;;;;;;;;;;5129088;28;20253;-75
2024/03/01 14:32:03;;;;;;;4.70;1.30;;;;;;;;;;5129089;28;20197;-74
2024/03/01 14:34:38;;;;;;;4.80;2.27;;;;;;;;;;5128923;27;20658;-74
2024/03/01 14:37:05;;;;;;;4.93;2.27;;;;;;;;;;5128762;28;20200;-74
2024/03/01 14:39:33;;;;;;;5.47;1.70;;;;;;;;;;5128415;27;20236;-74
2024/03/01 14:42:00;;;;;;;5.30;2.27;;;;;;;;;;5129170;28;20215;-75
2024/03/01 14:44:28;;;;;;;4.80;2.40;;;;;;;;;;5128651;28;20276;-75
2024/03/01 14:46:56;;;;;;;4.40;1.60;;;;;;;;;;5128735;27;20199;-74
2024/03/01 14:49:25;;;;;;;2.57;1.40;;;;;;;;;;5128578;28;20246;-73
2024/03/01 14:51:54;;;;;;;2.83;1.10;;;;;;;;;;5128818;28;20201;-75
2024/03/01 14:54:22;;;;;;;4.70;1.30;;;;;;;;;;5128508;28;20279;-74
2024/03/01 14:56:50;;;;;;;3.47;1.20;;;;;;;;;;5128654;28;20204;-73
2024/03/01 14:59:18;;;;;;;4.07;1.10;;;;;;;;;;5128502;28;20444;-75
2024/03/01 15:01:47;;;;;;;2.93;1.10;;;;;;;;;;5128548;28;20193;-75
2024/03/01 15:04:14;;;;;;;3.97;1.23;;;;;;;;;;5128856;28;20276;-75
2024/03/01 15:06:41;;;;;;;2.77;1.10;;;;;;;;;;5128054;28;20253;-75
2024/03/01 15:09:09;;;;;;;3.40;1.57;;;;;;;;;;5127703;28;20276;-75
2024/03/01 15:11:37;;;;;;;3.33;1.03;;;;;;;;;;5140386;27;20226;-75